Time;durP1;ratioP1;P1;durP2;ratioP2;P2;SDS_P1;SDS_P2;PMS_P1;PMS_P2;Temp;Humidity;BMP_temperature;BMP_pressure;BME280_temperature;BME280_humidity;BME280_pressure;Samples;Min_cycle;Max_cycle;Signal;HPM_P1;HPM_P2
2022/10/30 00:00:26;;;;;;;17.42;10.63;;;14.70;99.90;;;;;;5099613;27;20043;-69
2022/10/30 00:02:52;;;;;;;16.23;10.38;;;14.70;99.90;;;;;;5116560;27;20122;-68
2022/10/30 00:05:19;;;;;;;19.75;10.88;;;14.70;99.90;;;;;;5134965;27;20050;-69
2022/10/30 00:07:49;;;;;;;20.25;10.20;;;14.70;99.90;;;;;;5116741;27;20433;-69
2022/10/30 00:10:15;;;;;;;27.27;11.25;;;14.60;99.90;;;;;;5134783;27;20540;-69
2022/10/30 00:12:41;;;;;;;21.13;11.05;;;14.60;99.90;;;;;;5134703;27;20035;-69
2022/10/30 00:15:08;;;;;;;21.45;11.40;;;14.50;99.90;;;;;;5116375;27;20035;-67
2022/10/30 00:17:34;;;;;;;18.15;10.23;;;14.50;99.90;;;;;;5134909;27;20037;-67
2022/10/30 00:19:59;;;;;;;22.65;10.65;;;14.50;99.90;;;;;;5116300;27;20043;-67
2022/10/30 00:22:25;;;;;;;22.10;11.25;;;14.50;99.90;;;;;;5099338;27;20043;-67
2022/10/30 00:24:51;;;;;;;18.50;10.52;;;14.50;99.90;;;;;;5116335;27;20035;-67
2022/10/30 00:27:17;;;;;;;24.27;10.85;;;14.40;99.90;;;;;;5132289;27;20403;-67
2022/10/30 00:29:43;;;;;;;17.98;10.48;;;14.40;99.90;;;;;;5116064;27;20122;-67
2022/10/30 00:32:09;;;;;;;26.15;13.30;;;14.40;99.90;;;;;;5116096;27;20043;-67
2022/10/30 00:34:36;;;;;;;20.05;10.25;;;14.30;99.90;;;;;;5134669;27;20039;-67
2022/10/30 00:37:02;;;;;;;18.77;11.75;;;14.30;99.90;;;;;;5116038;27;20040;-68
2022/10/30 00:39:27;;;;;;;23.10;11.23;;;14.30;99.90;;;;;;5134276;27;20612;-68
2022/10/30 00:41:53;;;;;;;23.02;11.90;;;14.20;99.90;;;;;;5134564;27;20114;-67
2022/10/30 00:44:44;;;;;;;16.85;9.43;;;14.20;99.90;;;;;;5115879;27;20047;-68
2022/10/30 00:47:20;;;;;;;26.67;12.98;;;14.20;99.90;;;;;;5134358;27;20043;-67
2022/10/30 00:49:51;;;;;;;22.52;10.90;;;14.20;99.90;;;;;;5115740;27;20050;-67
2022/10/30 00:52:17;;;;;;;21.88;10.75;;;14.20;99.90;;;;;;5099122;27;20035;-67
2022/10/30 00:54:43;;;;;;;23.40;10.68;;;14.20;99.90;;;;;;5134381;27;20383;-68
2022/10/30 00:57:09;;;;;;;19.73;11.02;;;14.20;99.90;;;;;;5113661;27;20042;-67
2022/10/30 00:59:35;;;;;;;24.13;11.52;;;14.10;99.90;;;;;;5134191;27;20031;-67
2022/10/30 01:02:02;;;;;;;23.95;12.18;;;14.10;99.90;;;;;;5115579;28;20050;-68
2022/10/30 01:04:30;;;;;;;16.50;10.25;;;14.10;99.90;;;;;;5134001;27;20051;-67
2022/10/30 01:06:58;;;;;;;21.15;11.20;;;14.10;99.90;;;;;;5134282;28;20043;-68
2022/10/30 01:09:24;;;;;;;17.67;10.95;;;14.10;99.90;;;;;;5114627;28;20127;-68
2022/10/30 01:11:50;;;;;;;22.15;10.75;;;14.10;99.90;;;;;;5098550;28;20066;-68
2022/10/30 01:14:18;;;;;;;22.23;11.23;;;14.10;99.90;;;;;;5115419;28;20039;-67
2022/10/30 01:17:15;;;;;;;27.98;11.55;;;14.10;99.90;;;;;;5115638;28;20043;-68
2022/10/30 01:20:20;;;;;;;20.20;10.98;;;14.00;99.90;;;;;;5134113;28;20121;-67
2022/10/30 01:22:58;;;;;;;22.00;10.55;;;14.00;99.90;;;;;;5077313;28;20074;-67
2022/10/30 01:25:41;;;;;;;20.92;11.90;;;14.00;99.90;;;;;;5131511;28;20042;-67
2022/10/30 01:28:40;;;;;;;24.63;11.65;;;14.00;99.90;;;;;;5115709;28;20046;-68
2022/10/30 01:31:48;;;;;;;18.77;11.15;;;14.00;99.90;;;;;;5115922;28;20462;-67
2022/10/30 01:34:17;;;;;;;20.83;11.60;;;14.00;99.90;;;;;;5098340;28;20054;-67
2022/10/30 01:36:49;;;;;;;21.45;11.18;;;14.00;99.90;;;;;;5133700;28;20095;-67
2022/10/30 01:39:20;;;;;;;22.00;11.52;;;14.00;99.90;;;;;;5133569;28;20050;-67
2022/10/30 01:41:46;;;;;;;23.38;10.75;;;14.00;99.90;;;;;;5135239;27;20039;-67
2022/10/30 01:44:20;;;;;;;27.27;12.13;;;14.00;99.90;;;;;;5135816;27;20046;-67
2022/10/30 01:47:07;;;;;;;19.90;11.07;;;14.00;99.90;;;;;;5154582;27;20043;-67
2022/10/30 01:49:50;;;;;;;18.80;11.02;;;14.00;99.90;;;;;;5154321;27;20043;-67
2022/10/30 01:52:40;;;;;;;23.17;12.07;;;14.10;99.90;;;;;;5135785;27;20074;-67
2022/10/30 01:55:21;;;;;;;20.53;11.03;;;14.10;99.90;;;;;;5136104;27;20046;-67
2022/10/30 01:58:27;;;;;;;25.38;12.00;;;14.10;99.90;;;;;;5154221;27;20035;-67
2022/10/30 02:00:57;;;;;;;20.23;10.90;;;14.10;99.90;;;;;;5136010;27;20046;-67
2022/10/30 02:03:24;;;;;;;23.80;11.50;;;14.10;99.90;;;;;;5135571;27;20483;-67
2022/10/30 02:05:51;;;;;;;18.15;11.13;;;14.10;99.90;;;;;;5135640;27;20054;-67
2022/10/30 02:08:18;;;;;;;22.98;11.73;;;14.00;99.90;;;;;;5154275;27;20049;-67
2022/10/30 02:10:47;;;;;;;20.35;12.02;;;14.10;99.90;;;;;;5135494;27;20502;-67
2022/10/30 02:13:13;;;;;;;26.95;11.68;;;14.00;99.90;;;;;;5154170;27;20483;-67
2022/10/30 02:15:40;;;;;;;19.13;12.07;;;14.00;99.90;;;;;;5135522;27;20502;-67
2022/10/30 02:18:06;;;;;;;23.73;12.23;;;13.90;99.90;;;;;;5154267;27;20066;-67
2022/10/30 02:20:32;;;;;;;24.00;12.18;;;13.90;99.90;;;;;;5155216;27;20097;-67
2022/10/30 02:22:58;;;;;;;21.13;11.55;;;13.90;99.90;;;;;;5138913;27;20406;-67
2022/10/30 02:25:23;;;;;;;24.08;11.60;;;13.90;99.90;;;;;;5136519;27;20035;-67
2022/10/30 02:27:49;;;;;;;23.52;11.43;;;13.90;99.90;;;;;;5157683;27;20030;-67
2022/10/30 02:30:15;;;;;;;20.33;11.75;;;13.80;99.90;;;;;;5138876;27;20039;-67
2022/10/30 02:32:41;;;;;;;25.60;12.13;;;13.80;99.90;;;;;;5138958;27;20043;-67
2022/10/30 02:35:07;;;;;;;25.98;12.57;;;13.70;99.90;;;;;;5139349;27;20034;-68
2022/10/30 02:37:34;;;;;;;24.33;12.57;;;13.80;99.90;;;;;;5121721;27;20054;-67
2022/10/30 02:40:04;;;;;;;23.15;11.85;;;13.70;99.90;;;;;;5138809;27;20047;-66
2022/10/30 02:42:30;;;;;;;23.38;12.18;;;13.80;99.90;;;;;;5138835;27;20586;-67
2022/10/30 02:44:55;;;;;;;22.25;11.93;;;13.70;99.90;;;;;;5157598;27;20042;-67
2022/10/30 02:47:21;;;;;;;23.83;11.70;;;13.70;99.90;;;;;;5139081;27;20031;-66
2022/10/30 02:49:47;;;;;;;24.20;11.30;;;13.70;99.90;;;;;;5138820;27;20039;-66
2022/10/30 02:52:12;;;;;;;21.05;12.40;;;13.70;99.90;;;;;;5157040;27;20118;-68
2022/10/30 02:54:38;;;;;;;23.92;12.50;;;13.60;99.90;;;;;;5138481;27;20074;-68
2022/10/30 02:57:04;;;;;;;21.23;12.00;;;13.60;99.90;;;;;;5136689;27;20062;-68
2022/10/30 02:59:30;;;;;;;22.67;12.35;;;13.60;99.90;;;;;;5121326;27;20493;-68
2022/10/30 03:01:55;;;;;;;19.20;12.13;;;13.60;99.90;;;;;;5157188;27;20038;-68
2022/10/30 03:04:21;;;;;;;29.05;11.95;;;13.60;99.90;;;;;;5156839;27;20122;-69
2022/10/30 03:06:47;;;;;;;23.02;12.55;;;13.50;99.90;;;;;;5157068;27;20125;-67
2022/10/30 03:09:12;;;;;;;18.85;11.80;;;13.50;99.90;;;;;;5138536;27;20046;-69
2022/10/30 03:11:38;;;;;;;20.00;12.52;;;13.50;99.90;;;;;;5138429;27;20463;-69
2022/10/30 03:14:04;;;;;;;27.30;12.88;;;13.50;99.90;;;;;;5138213;27;20047;-68
2022/10/30 03:16:30;;;;;;;23.27;13.32;;;13.50;99.90;;;;;;5138137;27;20035;-68
2022/10/30 03:18:57;;;;;;;20.42;12.20;;;13.50;99.90;;;;;;5138069;27;20042;-68
2022/10/30 03:21:25;;;;;;;19.80;13.02;;;13.50;99.90;;;;;;5138139;27;20030;-67
2022/10/30 03:23:52;;;;;;;27.17;13.02;;;13.60;99.90;;;;;;5138293;27;20046;-68
2022/10/30 03:26:19;;;;;;;20.55;12.30;;;13.50;99.90;;;;;;5154370;27;20039;-68
2022/10/30 03:28:44;;;;;;;23.90;14.15;;;13.50;99.90;;;;;;5138129;27;20427;-68
2022/10/30 03:31:13;;;;;;;22.10;12.30;;;13.50;99.90;;;;;;5137747;27;20114;-68
2022/10/30 03:33:39;;;;;;;19.65;12.85;;;13.50;99.90;;;;;;5155720;27;20030;-68
2022/10/30 03:36:07;;;;;;;22.33;12.32;;;13.50;99.90;;;;;;5137850;27;20042;-68
2022/10/30 03:38:33;;;;;;;19.25;12.45;;;13.50;99.90;;;;;;5137610;27;20058;-68
2022/10/30 03:40:59;;;;;;;27.90;12.90;;;13.40;99.90;;;;;;5137587;27;20050;-68
2022/10/30 03:43:25;;;;;;;20.63;12.70;;;13.40;99.90;;;;;;5137605;27;20086;-68
2022/10/30 03:45:53;;;;;;;26.35;13.18;;;13.40;99.90;;;;;;5137601;27;20553;-68
2022/10/30 03:48:21;;;;;;;27.52;14.10;;;13.40;99.90;;;;;;5156192;27;20398;-68
2022/10/30 03:50:47;;;;;;;23.00;12.82;;;13.30;99.90;;;;;;5137585;27;20034;-67
2022/10/30 03:53:14;;;;;;;29.00;14.02;;;13.30;99.90;;;;;;5156073;27;20046;-68
2022/10/30 03:55:40;;;;;;;23.20;13.90;;;13.30;99.90;;;;;;5153610;27;20038;-68
2022/10/30 03:58:07;;;;;;;21.27;13.43;;;13.30;99.90;;;;;;5156152;27;20117;-68
2022/10/30 04:00:33;;;;;;;27.50;12.68;;;13.30;99.90;;;;;;5137693;27;20050;-68
2022/10/30 04:02:59;;;;;;;21.45;13.00;;;13.20;99.90;;;;;;5120269;27;20122;-68
2022/10/30 04:05:26;;;;;;;23.85;13.10;;;13.30;99.90;;;;;;5137333;27;20118;-68
2022/10/30 04:07:57;;;;;;;25.23;13.50;;;13.30;99.90;;;;;;5137218;27;20091;-67
2022/10/30 04:10:23;;;;;;;22.85;15.90;;;13.30;99.90;;;;;;5119854;27;20506;-67
2022/10/30 04:12:49;;;;;;;23.90;12.88;;;13.30;99.90;;;;;;5155778;27;20063;-67
2022/10/30 04:15:14;;;;;;;23.95;14.05;;;13.20;99.90;;;;;;5155538;27;20061;-67
2022/10/30 04:17:47;;;;;;;21.60;12.00;;;13.30;99.90;;;;;;5155413;27;20035;-67
2022/10/30 04:20:12;;;;;;;20.58;12.75;;;13.30;99.90;;;;;;5137037;27;20094;-67
2022/10/30 04:22:38;;;;;;;22.30;12.70;;;13.20;99.90;;;;;;5136845;27;20126;-67
2022/10/30 04:25:04;;;;;;;25.55;14.45;;;13.20;99.90;;;;;;5136925;27;20046;-67
2022/10/30 04:27:30;;;;;;;21.55;12.35;;;13.20;99.90;;;;;;5134536;27;20050;-67
2022/10/30 04:29:55;;;;;;;22.08;12.95;;;13.20;99.90;;;;;;5155320;27;20039;-68
2022/10/30 04:32:21;;;;;;;24.40;13.40;;;13.20;99.90;;;;;;5136908;27;20070;-67
2022/10/30 04:34:47;;;;;;;20.42;13.43;;;13.20;99.90;;;;;;5137077;27;20049;-67
2022/10/30 04:37:13;;;;;;;21.15;12.90;;;13.20;99.90;;;;;;5136565;27;20525;-67
2022/10/30 04:39:38;;;;;;;23.33;13.30;;;13.20;99.90;;;;;;5136555;27;20484;-67
2022/10/30 04:42:04;;;;;;;28.90;13.77;;;13.20;99.90;;;;;;5155247;27;20053;-67
2022/10/30 04:44:31;;;;;;;23.05;12.75;;;13.10;99.90;;;;;;5154823;27;20058;-68
2022/10/30 04:46:57;;;;;;;23.08;13.60;;;13.10;99.90;;;;;;5136550;27;20051;-68
2022/10/30 04:49:22;;;;;;;23.77;14.02;;;13.10;99.90;;;;;;5154884;27;20049;-68
2022/10/30 04:51:48;;;;;;;26.30;13.70;;;13.00;99.90;;;;;;5136496;27;20039;-68
2022/10/30 04:54:14;;;;;;;21.65;13.00;;;13.00;99.90;;;;;;5136400;27;20085;-68
2022/10/30 04:56:39;;;;;;;24.45;13.23;;;13.00;99.90;;;;;;5134510;27;20038;-68
2022/10/30 04:59:05;;;;;;;23.73;13.85;;;13.00;99.90;;;;;;5136288;27;20070;-69
2022/10/30 05:01:31;;;;;;;25.10;15.20;;;13.00;99.90;;;;;;5136507;27;20045;-68
2022/10/30 05:03:57;;;;;;;24.38;13.98;;;13.00;99.90;;;;;;5154847;27;20527;-68
2022/10/30 05:06:29;;;;;;;25.02;14.15;;;12.90;99.90;;;;;;5136274;27;20045;-68
2022/10/30 05:08:55;;;;;;;25.08;14.27;;;12.90;99.90;;;;;;5136400;27;20053;-68
2022/10/30 05:11:21;;;;;;;23.70;14.70;;;12.80;99.90;;;;;;5136209;27;20039;-68
2022/10/30 05:13:47;;;;;;;24.13;14.40;;;12.80;99.90;;;;;;5154662;27;20041;-68
2022/10/30 05:16:13;;;;;;;26.13;14.68;;;12.80;99.90;;;;;;5136207;27;20130;-69
2022/10/30 05:18:38;;;;;;;25.88;13.45;;;12.80;99.90;;;;;;5136049;27;20078;-68
2022/10/30 05:21:04;;;;;;;28.23;16.02;;;12.70;99.90;;;;;;5119019;27;20042;-68
2022/10/30 05:23:30;;;;;;;27.00;15.35;;;12.70;99.90;;;;;;5154854;27;20175;-68
2022/10/30 05:25:58;;;;;;;25.30;14.07;;;12.70;99.90;;;;;;5116831;27;20047;-68
2022/10/30 05:28:24;;;;;;;28.35;15.05;;;12.70;99.90;;;;;;5136332;27;20043;-68
2022/10/30 05:30:52;;;;;;;25.67;13.60;;;12.70;99.90;;;;;;5135864;27;20062;-68
2022/10/30 05:33:18;;;;;;;23.45;15.45;;;12.60;99.90;;;;;;5135985;27;20530;-68
2022/10/30 05:35:43;;;;;;;27.70;14.95;;;12.60;99.90;;;;;;5154525;27;20078;-69
2022/10/30 05:38:09;;;;;;;32.10;15.60;;;12.60;99.90;;;;;;5154275;27;20047;-68
2022/10/30 05:40:35;;;;;;;27.38;15.13;;;12.60;99.90;;;;;;5136151;27;20038;-68
2022/10/30 05:43:01;;;;;;;28.67;16.10;;;12.60;99.90;;;;;;5135769;27;20510;-68
2022/10/30 05:45:27;;;;;;;23.15;14.77;;;12.60;99.90;;;;;;5135856;27;20486;-68
2022/10/30 05:48:04;;;;;;;24.13;15.25;;;12.50;99.90;;;;;;5135855;27;20047;-68
2022/10/30 05:50:30;;;;;;;30.77;16.00;;;12.50;99.90;;;;;;5135721;27;20047;-68
2022/10/30 05:52:57;;;;;;;29.88;15.90;;;12.40;99.90;;;;;;5136043;27;20035;-68
2022/10/30 05:55:23;;;;;;;27.92;15.77;;;12.40;99.90;;;;;;5153862;27;20352;-68
2022/10/30 05:57:49;;;;;;;32.70;15.95;;;12.40;99.90;;;;;;5139277;27;20122;-68
2022/10/30 06:00:15;;;;;;;27.20;16.50;;;12.40;99.90;;;;;;5139827;27;20070;-68
2022/10/30 06:02:41;;;;;;;29.65;17.15;;;12.40;99.90;;;;;;5158225;27;20030;-69
2022/10/30 06:05:07;;;;;;;31.00;15.60;;;12.30;99.90;;;;;;5139457;27;20045;-68
2022/10/30 06:07:33;;;;;;;32.72;15.95;;;12.30;99.90;;;;;;5122421;27;20050;-68
2022/10/30 06:09:58;;;;;;;30.90;16.05;;;12.30;99.90;;;;;;5158106;27;20027;-68
2022/10/30 06:12:24;;;;;;;32.92;16.23;;;12.30;99.90;;;;;;5139427;27;20127;-68
2022/10/30 06:14:50;;;;;;;27.88;15.40;;;12.20;99.90;;;;;;5157886;27;20074;-69
2022/10/30 06:17:15;;;;;;;29.70;17.20;;;12.20;99.90;;;;;;5139185;27;20042;-68
2022/10/30 06:19:41;;;;;;;31.63;17.35;;;12.10;99.90;;;;;;5139263;27;20135;-68
2022/10/30 06:22:07;;;;;;;28.80;16.77;;;12.10;99.90;;;;;;5139469;27;20037;-68
2022/10/30 06:24:33;;;;;;;27.80;16.08;;;12.10;99.90;;;;;;5139170;27;20039;-68
2022/10/30 06:26:58;;;;;;;32.55;15.77;;;12.10;99.90;;;;;;5155586;27;20038;-68
2022/10/30 06:29:24;;;;;;;31.90;17.10;;;12.20;99.90;;;;;;5157456;27;20499;-68
2022/10/30 06:31:50;;;;;;;30.25;15.40;;;12.10;99.90;;;;;;5138995;27;20049;-68
2022/10/30 06:34:15;;;;;;;29.50;17.02;;;12.10;99.90;;;;;;5138978;27;20046;-68
2022/10/30 06:36:41;;;;;;;30.90;16.50;;;12.20;99.90;;;;;;5154613;27;20114;-67
2022/10/30 06:39:07;;;;;;;34.47;17.98;;;12.10;99.90;;;;;;5135467;27;20043;-68
2022/10/30 06:41:33;;;;;;;30.80;17.30;;;12.20;99.90;;;;;;5135368;27;20087;-69
2022/10/30 06:43:59;;;;;;;30.08;16.52;;;12.20;99.90;;;;;;5136678;27;20043;-68
2022/10/30 06:46:25;;;;;;;31.08;16.02;;;12.20;99.90;;;;;;5135369;27;20043;-68
2022/10/30 06:48:51;;;;;;;26.20;15.52;;;12.30;99.90;;;;;;5136252;27;20114;-68
2022/10/30 06:51:16;;;;;;;24.45;15.68;;;12.30;99.90;;;;;;5136448;27;20144;-68
2022/10/30 06:53:42;;;;;;;29.77;16.13;;;12.30;99.90;;;;;;5135423;27;20039;-69
2022/10/30 06:56:08;;;;;;;34.10;17.63;;;12.30;99.90;;;;;;5134196;27;20476;-68
2022/10/30 06:58:37;;;;;;;30.63;14.88;;;12.30;99.90;;;;;;5136466;27;20062;-68
2022/10/30 07:01:06;;;;;;;25.88;15.25;;;12.40;99.90;;;;;;5117995;27;20043;-67
2022/10/30 07:03:32;;;;;;;29.85;16.17;;;12.40;99.90;;;;;;5136163;27;20455;-67
2022/10/30 07:05:58;;;;;;;30.85;16.58;;;12.40;99.90;;;;;;5134703;27;20043;-69
2022/10/30 07:08:24;;;;;;;26.38;14.85;;;12.50;99.90;;;;;;5134015;27;20046;-68
2022/10/30 07:10:50;;;;;;;27.98;14.25;;;12.50;99.90;;;;;;5134786;27;20043;-68
2022/10/30 07:13:16;;;;;;;25.85;15.43;;;12.50;99.90;;;;;;5136251;27;20035;-67
2022/10/30 07:15:41;;;;;;;24.20;14.77;;;12.60;99.90;;;;;;5117661;27;20039;-69
2022/10/30 07:18:09;;;;;;;31.65;15.75;;;12.60;99.90;;;;;;5134553;27;20050;-68
2022/10/30 07:20:35;;;;;;;25.25;14.90;;;12.60;99.90;;;;;;5136132;27;20073;-68
2022/10/30 07:23:01;;;;;;;28.35;15.90;;;12.70;99.90;;;;;;5134895;27;20112;-68
2022/10/30 07:25:27;;;;;;;28.45;16.15;;;12.70;99.90;;;;;;5133643;27;20050;-68
2022/10/30 07:27:54;;;;;;;27.92;14.95;;;12.80;99.90;;;;;;5135893;27;20054;-68
2022/10/30 07:30:22;;;;;;;24.40;14.18;;;12.80;99.90;;;;;;5135639;27;20092;-68
2022/10/30 07:33:02;;;;;;;27.33;14.90;;;12.80;99.90;;;;;;5134479;27;20104;-68
2022/10/30 07:35:29;;;;;;;20.55;13.95;;;12.90;99.90;;;;;;5135836;27;20115;-68
2022/10/30 07:37:55;;;;;;;23.27;14.73;;;13.00;99.90;;;;;;5134211;27;20047;-68
2022/10/30 07:40:21;;;;;;;25.67;13.95;;;13.00;99.90;;;;;;5134593;27;20399;-68
2022/10/30 07:42:47;;;;;;;24.98;13.38;;;13.10;99.90;;;;;;5134900;27;20068;-69
2022/10/30 07:45:13;;;;;;;21.65;13.30;;;13.20;99.90;;;;;;5135347;27;20047;-68
2022/10/30 07:47:42;;;;;;;26.70;14.80;;;13.30;99.90;;;;;;5135587;27;20088;-68
2022/10/30 07:50:09;;;;;;;27.83;15.50;;;13.30;99.90;;;;;;5134156;27;20043;-68
2022/10/30 07:52:35;;;;;;;24.60;14.25;;;13.40;99.90;;;;;;5133679;27;20039;-69
2022/10/30 07:55:07;;;;;;;23.23;14.05;;;13.50;99.90;;;;;;5134602;27;20035;-68
2022/10/30 07:57:37;;;;;;;20.20;12.82;;;13.70;99.90;;;;;;5134815;27;20084;-68
2022/10/30 08:00:09;;;;;;;24.80;13.45;;;13.90;99.90;;;;;;5137402;27;20038;-68
2022/10/30 08:02:35;;;;;;;22.70;13.93;;;14.00;99.90;;;;;;5137264;27;20495;-68
2022/10/30 08:05:02;;;;;;;23.23;14.52;;;14.10;99.90;;;;;;5137069;27;20049;-68
2022/10/30 08:07:32;;;;;;;22.60;12.77;;;14.20;99.90;;;;;;5155581;27;20034;-68
2022/10/30 08:09:58;;;;;;;24.85;13.00;;;14.30;99.90;;;;;;5136878;27;20121;-68
2022/10/30 08:12:25;;;;;;;22.10;12.27;;;14.40;99.90;;;;;;5119902;27;20176;-68
2022/10/30 08:14:51;;;;;;;22.67;12.98;;;14.60;99.90;;;;;;5155521;27;20042;-68
2022/10/30 08:17:18;;;;;;;22.38;13.00;;;14.70;99.90;;;;;;5136770;27;20045;-68
2022/10/30 08:19:43;;;;;;;23.75;13.13;;;14.80;99.90;;;;;;5154899;27;20047;-68
2022/10/30 08:22:10;;;;;;;19.73;12.57;;;14.90;99.90;;;;;;5136596;27;20051;-68
2022/10/30 08:24:36;;;;;;;25.27;13.45;;;15.00;99.90;;;;;;5136619;27;20042;-68
2022/10/30 08:27:02;;;;;;;19.63;12.57;;;15.10;99.90;;;;;;5134211;27;20061;-68
2022/10/30 08:29:28;;;;;;;20.38;12.13;;;15.20;99.90;;;;;;5136667;27;20447;-68
2022/10/30 08:31:54;;;;;;;18.30;12.82;;;15.40;99.90;;;;;;5155036;27;20067;-68
2022/10/30 08:34:20;;;;;;;21.48;12.57;;;15.60;99.90;;;;;;5155054;27;20039;-68
2022/10/30 08:36:50;;;;;;;17.80;12.68;;;15.70;99.90;;;;;;5154760;27;20050;-68
2022/10/30 08:39:17;;;;;;;21.42;12.90;;;16.00;99.90;;;;;;5136620;27;20046;-69
2022/10/30 08:41:43;;;;;;;15.55;11.48;;;16.40;99.90;;;;;;5119425;27;20042;-69
2022/10/30 08:44:08;;;;;;;20.50;11.98;;;16.90;99.90;;;;;;5154654;27;20498;-68
2022/10/30 08:46:35;;;;;;;18.33;10.70;;;17.50;99.90;;;;;;5154917;27;20046;-69
2022/10/30 08:49:01;;;;;;;15.88;10.77;;;18.10;99.90;;;;;;5154730;27;20039;-68
2022/10/30 08:51:27;;;;;;;18.13;10.85;;;18.80;99.90;;;;;;5135319;27;20054;-69
2022/10/30 08:53:52;;;;;;;20.00;11.57;;;19.40;99.90;;;;;;5115393;27;20043;-69
2022/10/30 08:56:18;;;;;;;19.90;10.25;;;20.00;99.90;;;;;;5131447;27;20035;-69
2022/10/30 08:58:44;;;;;;;16.15;10.65;;;20.60;99.90;;;;;;5127148;27;20066;-69
2022/10/30 09:01:09;;;;;;;18.92;9.70;;;21.10;99.90;;;;;;5098164;27;20035;-69
2022/10/30 09:03:37;;;;;;;17.83;10.68;;;21.40;99.90;;;;;;5133873;27;20110;-70
2022/10/30 09:06:03;;;;;;;18.75;9.98;;;21.80;99.90;;;;;;5133920;27;20119;-69
2022/10/30 09:08:29;;;;;;;17.48;10.07;;;22.00;99.90;;;;;;5134647;27;20379;-69
2022/10/30 09:10:58;;;;;;;13.90;8.85;;;22.30;99.90;;;;;;5115131;28;20072;-69
2022/10/30 09:13:24;;;;;;;18.42;9.27;;;22.60;99.90;;;;;;5115737;28;20097;-69
2022/10/30 09:15:50;;;;;;;18.70;9.77;;;22.80;99.90;;;;;;5133732;28;20467;-70
2022/10/30 09:18:17;;;;;;;21.55;9.45;;;23.00;99.90;;;;;;5133709;28;20050;-69
2022/10/30 09:20:43;;;;;;;21.50;9.40;;;23.40;99.90;;;;;;5115308;28;20100;-69
2022/10/30 09:23:09;;;;;;;21.25;10.30;;;23.90;99.90;;;;;;5115388;28;20492;-69
2022/10/30 09:25:35;;;;;;;15.43;9.82;;;24.30;99.90;;;;;;5112972;28;20514;-70
2022/10/30 09:28:01;;;;;;;19.13;10.75;;;24.60;99.90;;;;;;5114972;28;20053;-69
2022/10/30 09:30:26;;;;;;;17.02;9.77;;;24.80;99.90;;;;;;5116086;27;20036;-70
2022/10/30 09:32:57;;;;;;;18.23;9.05;;;24.90;99.90;;;;;;5119483;27;20069;-70
2022/10/30 09:35:24;;;;;;;15.73;8.98;;;25.20;99.90;;;;;;5119384;27;20046;-70
2022/10/30 09:37:50;;;;;;;13.55;8.50;;;25.00;99.90;;;;;;5120034;27;20046;-69
2022/10/30 09:40:37;;;;;;;14.70;9.55;;;24.20;99.90;;;;;;5105701;27;20127;-70
2022/10/30 09:43:20;;;;;;;19.92;10.27;;;23.60;99.90;;;;;;5117092;28;20040;-69
2022/10/30 09:46:22;;;;;;;13.57;8.60;;;23.90;99.90;;;;;;5123659;27;20035;-70
2022/10/30 09:48:53;;;;;;;18.90;9.48;;;24.20;99.90;;;;;;5123738;27;20547;-69
2022/10/30 09:51:42;;;;;;;15.50;9.73;;;24.50;99.90;;;;;;5098410;28;20039;-70
2022/10/30 09:54:28;;;;;;;15.75;9.60;;;24.90;99.90;;;;;;5101509;27;20058;-71
2022/10/30 09:57:08;;;;;;;15.77;9.82;;;25.10;99.90;;;;;;5095941;27;20053;-70
2022/10/30 09:59:35;;;;;;;;;;;25.20;99.90;;;;;;5113050;27;20043;-71
2022/10/30 10:02:26;;;;;;;15.02;9.23;;;25.40;99.90;;;;;;5114261;27;19915;-71
2022/10/30 10:05:14;;;;;;;17.38;9.77;;;25.20;99.90;;;;;;5115809;27;20052;-71
2022/10/30 10:07:53;;;;;;;18.90;9.93;;;24.90;99.90;;;;;;5100464;27;20479;-71
2022/10/30 10:10:43;;;;;;;16.83;9.27;;;24.70;99.90;;;;;;5080568;28;20075;-71
2022/10/30 10:13:29;;;;;;;17.67;9.57;;;25.00;99.90;;;;;;5135809;27;20058;-70
2022/10/30 10:16:19;;;;;;;15.10;8.90;;;25.50;99.90;;;;;;5118097;27;20031;-71
2022/10/30 10:19:13;;;;;;;17.75;10.02;;;25.90;99.90;;;;;;5136275;27;20035;-71
2022/10/30 10:22:25;;;;;;;12.48;8.38;;;26.30;99.90;;;;;;5117556;27;20122;-70
2022/10/30 10:24:53;;;;;;;18.55;8.80;;;26.70;99.90;;;;;;5126584;27;20052;-71
2022/10/30 10:27:40;;;;;;;17.08;9.20;;;26.90;99.90;;;;;;5115539;27;20035;-71
2022/10/30 10:30:20;;;;;;;19.33;9.70;;;27.00;99.90;;;;;;5117602;27;20383;-71
2022/10/30 10:32:50;;;;;;;;;;;27.10;99.90;;;;;;5136667;27;20031;-72
2022/10/30 10:35:35;;;;;;;15.93;9.07;;;27.10;99.90;;;;;;5100828;27;20249;-71
2022/10/30 10:38:19;;;;;;;20.38;10.43;;;27.10;99.90;;;;;;5117573;27;20051;-72
2022/10/30 10:41:02;;;;;;;16.73;8.40;;;27.10;99.90;;;;;;5135859;27;20047;-71
2022/10/30 10:43:53;;;;;;;13.77;9.55;;;27.20;99.90;;;;;;5135792;27;20055;-71
2022/10/30 10:46:27;;;;;;;16.15;8.77;;;27.30;99.90;;;;;;5117400;27;20380;-71
2022/10/30 10:49:21;;;;;;;13.02;8.65;;;27.20;99.90;;;;;;5117225;27;20045;-71
2022/10/30 10:52:09;;;;;;;16.35;8.45;;;26.80;99.90;;;;;;5117624;27;20043;-71
2022/10/30 10:54:41;;;;;;;16.90;9.30;;;26.10;99.90;;;;;;5135736;27;20485;-70
2022/10/30 10:57:09;;;;;;;15.55;8.57;;;25.60;99.90;;;;;;5132979;27;20072;-70
2022/10/30 10:59:40;;;;;;;18.70;8.93;;;25.40;99.90;;;;;;5135787;27;20035;-71
2022/10/30 11:02:26;;;;;;;14.80;8.38;;;25.40;99.90;;;;;;5117888;27;20039;-70
2022/10/30 11:04:58;;;;;;;15.40;8.30;;;25.50;99.90;;;;;;5129381;27;20081;-70
2022/10/30 11:07:31;;;;;;;16.38;9.05;;;25.50;99.90;;;;;;5135274;27;20499;-70
2022/10/30 11:09:57;;;;;;;15.68;9.20;;;25.40;99.90;;;;;;5135106;27;20042;-70
2022/10/30 11:12:33;;;;;;;14.75;9.43;;;25.30;99.90;;;;;;5135277;27;20034;-71
2022/10/30 11:15:11;;;;;;;18.48;9.35;;;25.00;99.90;;;;;;5117164;27;20035;-70
2022/10/30 11:18:00;;;;;;;16.60;8.90;;;24.50;99.90;;;;;;5135236;27;20035;-70
2022/10/30 11:21:15;;;;;;;17.73;8.57;;;24.10;99.90;;;;;;5135108;27;20035;-70
2022/10/30 11:23:44;;;;;;;16.50;11.00;;;23.90;99.90;;;;;;5105644;28;20113;-70
2022/10/30 11:26:25;;;;;;;16.93;8.40;;;23.80;99.90;;;;;;5118878;27;20054;-69
2022/10/30 11:29:13;;;;;;;16.70;9.32;;;23.40;99.90;;;;;;5107112;28;20305;-70
2022/10/30 11:31:43;;;;;;;18.08;8.93;;;23.30;99.90;;;;;;5079494;28;20058;-70
2022/10/30 11:34:16;;;;;;;16.52;7.80;;;23.40;99.90;;;;;;5102039;28;20050;-69
2022/10/30 11:36:43;;;;;;;18.38;8.68;;;23.50;99.90;;;;;;5112790;27;20125;-69
2022/10/30 11:39:16;;;;;;;17.60;8.55;;;23.20;99.90;;;;;;5116372;27;20051;-69
2022/10/30 11:41:43;;;;;;;15.75;8.60;;;22.90;99.90;;;;;;5117694;27;20047;-69
2022/10/30 11:44:10;;;;;;;15.75;8.75;;;23.00;99.90;;;;;;5116360;27;20051;-69
2022/10/30 11:46:37;;;;;;;19.33;8.68;;;23.00;99.90;;;;;;5116082;27;20046;-69
2022/10/30 11:49:02;;;;;;;14.85;8.38;;;23.10;99.90;;;;;;5099158;27;20117;-69
2022/10/30 11:51:38;;;;;;;18.92;8.55;;;23.20;99.90;;;;;;5134316;27;20139;-69
2022/10/30 11:54:06;;;;;;;15.05;7.28;;;23.40;99.90;;;;;;5115310;27;20043;-69
2022/10/30 11:56:35;;;;;;;18.60;8.52;;;23.30;99.90;;;;;;5132059;27;20035;-69
2022/10/30 11:59:03;;;;;;;14.40;7.95;;;23.20;99.90;;;;;;5116003;27;20604;-70
2022/10/30 12:01:38;;;;;;;16.23;7.68;;;23.00;99.90;;;;;;5086234;28;20364;-69
2022/10/30 12:04:20;;;;;;;17.42;8.18;;;22.80;99.90;;;;;;5113617;28;20150;-69
2022/10/30 12:06:46;;;;;;;22.20;8.80;;;22.50;99.90;;;;;;5126627;27;20077;-68
2022/10/30 12:09:22;;;;;;;18.90;10.27;;;22.10;99.90;;;;;;5115577;27;20082;-69
2022/10/30 12:11:49;;;;;;;17.73;7.65;;;21.90;99.90;;;;;;5098662;27;20126;-69
2022/10/30 12:14:25;;;;;;;15.25;8.40;;;21.70;99.90;;;;;;5134037;27;20136;-69
2022/10/30 12:16:55;;;;;;;18.58;9.40;;;21.70;99.90;;;;;;5114900;27;20033;-69
2022/10/30 12:19:23;;;;;;;23.48;8.40;;;21.60;99.90;;;;;;5115381;27;20082;-69
2022/10/30 12:21:55;;;;;;;21.30;8.45;;;21.60;99.90;;;;;;5115538;27;20035;-69
2022/10/30 12:24:34;;;;;;;12.63;8.00;;;21.60;99.90;;;;;;5133812;27;20035;-68
2022/10/30 12:27:11;;;;;;;20.87;8.53;;;21.60;99.90;;;;;;5113242;27;20086;-69
2022/10/30 12:30:18;;;;;;;19.25;8.30;;;21.50;99.90;;;;;;5133831;27;20043;-69
2022/10/30 12:33:15;;;;;;;14.77;7.97;;;21.60;99.90;;;;;;5111341;27;20144;-69
2022/10/30 12:35:58;;;;;;;18.67;9.20;;;21.60;99.90;;;;;;5099234;27;20051;-69
2022/10/30 12:39:00;;;;;;;16.42;9.10;;;21.50;99.90;;;;;;5112796;28;20055;-69
2022/10/30 12:41:30;;;;;;;15.40;8.23;;;21.40;99.90;;;;;;5127130;27;20057;-69
2022/10/30 12:44:39;;;;;;;20.98;8.93;;;21.40;99.90;;;;;;5115500;27;20122;-68
2022/10/30 12:47:20;;;;;;;15.90;7.45;;;21.40;99.90;;;;;;5107867;27;20054;-69